< < Back
Terminal Aerodrome Forecast


Current Version              Previous Versions:   1  2  3  4  5  6  7  8  9  

Terminal Aerodrome Forecast

341
FTUS42 KGSP 232300
TAFAVL
TAF
KAVL 232322Z 2400/2424 33007KT P6SM VCSH BKN060
     FM240400 32005KT P6SM SCT010 BKN080
     FM240900 33004KT 3SM BR OVC003
     FM241400 32005KT P6SM VCSH SCT010 BKN040
     FM241600 32006KT P6SM -SHRA VCTS BKN035CB PROB30 2417/2421 3SM
      TSRA BKN025CB=

Latest METAR

469
SAUS70 KWBC 240400 RRK
MTRAVL
METAR KAVL 240354Z AUTO 35005KT 10SM CLR 21/19 A3005 RMK AO2 SLP147
T02110194


USA.gov is the U.S. government's official web portal to all federal, state and local government web resources and services.